Time;durP1;ratioP1;P1;durP2;ratioP2;P2;SDS_P1;SDS_P2;PMS_P1;PMS_P2;Temp;Humidity;BMP_temperature;BMP_pressure;BME280_temperature;BME280_humidity;BME280_pressure;Samples;Min_cycle;Max_cycle;Signal;HPM_P1;HPM_P2
2022/06/14 00:01:51;;;;;;;;;;;24.90;56.50;;;;;;4996763;28;19906;-68
2022/06/14 00:04:17;;;;;;;;;;;24.80;56.10;;;;;;4996616;28;20358;-68
2022/06/14 00:06:42;;;;;;;;;;;24.90;56.30;;;;;;4996653;28;19992;-68
2022/06/14 00:09:08;;;;;;;;;;;24.90;56.20;;;;;;4996626;28;19905;-68
2022/06/14 00:11:35;;;;;;;;;;;24.80;55.70;;;;;;4996394;28;20290;-68
2022/06/14 00:14:03;;;;;;;;;;;24.90;55.60;;;;;;4996624;28;19964;-68
2022/06/14 00:16:30;;;;;;;;;;;24.80;55.70;;;;;;4996774;28;19909;-68
2022/06/14 00:18:56;;;;;;;;;;;24.80;55.20;;;;;;4996301;28;20076;-68
2022/06/14 00:21:22;;;;;;;;;;;24.80;54.80;;;;;;4996702;28;20412;-68
2022/06/14 00:23:47;;;;;;;;;;;24.80;54.20;;;;;;4996515;28;20346;-69
2022/06/14 00:26:13;;;;;;;;;;;24.70;54.10;;;;;;4997005;28;19913;-68
2022/06/14 00:28:40;;;;;;;;;;;24.70;53.90;;;;;;4995941;28;19910;-68
2022/06/14 00:31:08;;;;;;;;;;;24.60;53.80;;;;;;4996099;28;19956;-68
2022/06/14 00:33:34;;;;;;;;;;;24.70;53.30;;;;;;4995924;28;20263;-68
2022/06/14 00:36:07;;;;;;;;;;;24.70;53.20;;;;;;4996313;28;19916;-69
2022/06/14 00:38:33;;;;;;;;;;;24.70;53.10;;;;;;4996105;28;19914;-68
2022/06/14 00:40:59;;;;;;;;;;;24.70;53.60;;;;;;4996080;28;20262;-68
2022/06/14 00:43:26;;;;;;;;;;;24.70;53.80;;;;;;4996111;28;19912;-68
2022/06/14 00:45:52;;;;;;;;;;;24.60;53.20;;;;;;4996033;28;19905;-68
2022/06/14 00:48:24;;;;;;;;;;;24.60;53.10;;;;;;4996056;28;19945;-69
2022/06/14 00:50:59;;;;;;;;;;;24.70;52.10;;;;;;4996099;28;20013;-68
2022/06/14 00:53:35;;;;;;;;;;;24.70;52.30;;;;;;4995877;28;19913;-68
2022/06/14 00:56:05;;;;;;;;;;;24.70;52.30;;;;;;4995771;28;20393;-68
2022/06/14 00:58:34;;;;;;;;;;;24.80;52.20;;;;;;4993770;28;19910;-69
2022/06/14 01:01:01;;;;;;;;;;;24.70;52.50;;;;;;4992731;28;19918;-69
2022/06/14 01:03:29;;;;;;;;;;;24.70;52.00;;;;;;4992761;28;19910;-69
2022/06/14 01:06:11;;;;;;;;;;;24.70;52.50;;;;;;4994900;28;19913;-68
2022/06/14 01:08:48;;;;;;;;;;;24.70;53.00;;;;;;4995308;28;19905;-68
2022/06/14 01:11:18;;;;;;;;;;;24.70;53.60;;;;;;4995517;28;19906;-68
2022/06/14 01:13:43;;;;;;;;;;;24.60;53.80;;;;;;5026846;28;20271;-68
2022/06/14 01:16:09;;;;;;;;;;;24.60;54.10;;;;;;4995126;28;19912;-68
2022/06/14 01:18:36;;;;;;;;;;;24.60;54.60;;;;;;4994744;28;20012;-68
2022/06/14 01:21:01;;;;;;;;;;;24.50;54.10;;;;;;4995103;28;20362;-69
2022/06/14 01:23:27;;;;;;;;;;;24.50;54.50;;;;;;4995254;28;19917;-68
2022/06/14 01:25:57;;;;;;;;;;;24.50;53.70;;;;;;4994905;28;20073;-69
2022/06/14 01:28:24;;;;;;;;;;;24.40;53.60;;;;;;4994769;28;19964;-68
2022/06/14 06:04:03;;;;;;;;;;;22.90;52.60;;;;;;5024494;28;19923;-73
2022/06/14 06:06:31;;;;;;;;;;;23.00;53.20;;;;;;5053407;28;20008;-68
2022/06/14 06:09:20;;;;;;;;;;;23.00;52.40;;;;;;5053254;28;19904;-71
2022/06/14 06:11:56;;;;;;;;;;;23.00;50.80;;;;;;5047282;28;19959;-68
2022/06/14 06:14:30;;;;;;;;;;;23.00;50.20;;;;;;5053104;28;19905;-67
2022/06/14 06:17:16;;;;;;;;;;;23.00;51.30;;;;;;5053157;28;19905;-67
2022/06/14 06:19:44;;;;;;;;;;;23.00;51.80;;;;;;5052761;28;19912;-72
2022/06/14 06:22:17;;;;;;;;;;;23.10;52.20;;;;;;5052463;28;19992;-68
2022/06/14 06:24:49;;;;;;;;;;;23.20;49.80;;;;;;5052527;28;19912;-67
2022/06/14 06:27:15;;;;;;;;;;;23.30;50.70;;;;;;5051694;28;19911;-67
2022/06/14 06:29:50;;;;;;;;;;;23.30;50.00;;;;;;5052867;28;19992;-67
2022/06/14 06:32:17;;;;;;;;;;;23.40;49.30;;;;;;5052850;28;19905;-73
2022/06/14 06:34:42;;;;;;;;;;;23.40;49.50;;;;;;5052737;28;19905;-67
2022/06/14 06:37:15;;;;;;;;;;;23.50;49.70;;;;;;5052744;28;20253;-67
2022/06/14 06:39:50;;;;;;;;;;;23.60;48.40;;;;;;5052812;28;19958;-68
2022/06/14 06:42:29;;;;;;;;;;;23.60;48.60;;;;;;5052961;28;19905;-70
2022/06/14 06:44:58;;;;;;;;;;;23.70;47.50;;;;;;5053115;28;19905;-67
2022/06/14 06:47:26;;;;;;;;;;;23.80;49.00;;;;;;5052667;28;19905;-70
2022/06/14 06:49:57;;;;;;;;;;;23.90;46.80;;;;;;5052742;28;19912;-68
2022/06/14 06:52:29;;;;;;;;;;;24.00;47.30;;;;;;5034392;28;19945;-68
2022/06/14 06:55:04;;;;;;;;;;;24.10;46.90;;;;;;5075177;28;19915;-68
2022/06/14 06:57:33;;;;;;;;;;;24.10;45.30;;;;;;5052950;28;19977;-68
2022/06/14 06:59:59;;;;;;;;;;;24.10;45.70;;;;;;5052462;28;19959;-67
2022/06/14 07:02:25;;;;;;;;;;;24.10;45.90;;;;;;5052466;28;19905;-68
2022/06/14 07:05:05;;;;;;;;;;;24.00;46.40;;;;;;5068021;28;19971;-70
2022/06/14 07:07:38;;;;;;;;;;;24.00;46.20;;;;;;5052538;28;20326;-68
2022/06/14 07:10:03;;;;;;;;;;;24.20;44.90;;;;;;5052607;28;19905;-73
2022/06/14 07:12:36;;;;;;;;;;;24.20;44.60;;;;;;5052609;28;19966;-68
2022/06/14 07:15:04;;;;;;;;;;;24.30;45.70;;;;;;5052928;28;19905;-72
2022/06/14 07:17:36;;;;;;;;;;;24.30;45.50;;;;;;5053035;28;20015;-68
2022/06/14 07:20:07;;;;;;;;;;;24.50;45.20;;;;;;5052917;28;19917;-68
2022/06/14 07:22:46;;;;;;;;;;;24.60;44.20;;;;;;5053022;28;20314;-68
2022/06/14 07:25:18;;;;;;;;;;;24.80;46.10;;;;;;5052860;28;19904;-69
2022/06/14 07:27:58;;;;;;;;;;;24.80;44.10;;;;;;5052810;28;19908;-72
2022/06/14 07:30:28;;;;;;;;;;;24.90;44.60;;;;;;5053133;28;19916;-70
2022/06/14 07:32:55;;;;;;;;;;;24.90;44.20;;;;;;5053059;28;19915;-69
2022/06/14 07:35:37;;;;;;;;;;;25.00;44.60;;;;;;5052955;28;19904;-70
2022/06/14 07:38:21;;;;;;;;;;;25.00;44.00;;;;;;5053816;28;19905;-69
2022/06/14 07:40:54;;;;;;;;;;;25.00;43.40;;;;;;5056314;28;19913;-69
2022/06/14 07:43:19;;;;;;;;;;;25.00;44.70;;;;;;5056262;28;19905;-69
2022/06/14 07:45:48;;;;;;;;;;;25.00;44.30;;;;;;5056369;28;20353;-69
2022/06/14 07:48:20;;;;;;;;;;;25.00;43.70;;;;;;5056401;28;19909;-69
2022/06/14 07:50:55;;;;;;;;;;;25.00;42.70;;;;;;5056225;28;19909;-69
2022/06/14 07:53:21;;;;;;;;;;;24.90;43.90;;;;;;5056139;28;19995;-70
2022/06/14 07:55:59;;;;;;;;;;;24.90;44.30;;;;;;5056437;28;20395;-69
2022/06/14 07:58:43;;;;;;;;;;;24.80;44.60;;;;;;5056425;28;19904;-70
2022/06/14 08:01:12;;;;;;;;;;;24.90;44.70;;;;;;5056024;28;19962;-69
2022/06/14 08:03:45;;;;;;;;;;;25.00;44.60;;;;;;5055929;28;19939;-69
2022/06/14 08:06:17;;;;;;;;;;;25.00;44.60;;;;;;5056116;28;19912;-69
2022/06/14 08:08:44;;;;;;;;;;;25.00;44.80;;;;;;5056029;28;20476;-69
2022/06/14 08:11:17;;;;;;;;;;;25.00;44.80;;;;;;5056163;28;19905;-69
2022/06/14 08:14:02;;;;;;;;;;;25.10;43.80;;;;;;5055946;28;19911;-70
2022/06/14 08:16:28;;;;;;;;;;;25.10;44.70;;;;;;5056056;28;19967;-69
2022/06/14 08:19:20;;;;;;;;;;;25.20;45.00;;;;;;5055951;28;20372;-69
2022/06/14 08:21:47;;;;;;;;;;;25.30;45.30;;;;;;5054511;28;19912;-69
2022/06/14 08:24:15;;;;;;;;;;;25.40;44.50;;;;;;5056059;28;19951;-70
2022/06/14 08:26:41;;;;;;;;;;;25.50;45.10;;;;;;5055440;28;20004;-69
2022/06/14 08:29:10;;;;;;;;;;;25.60;44.00;;;;;;5055741;28;20312;-69
2022/06/14 08:31:42;;;;;;;;;;;25.60;43.90;;;;;;5055428;28;20046;-70
2022/06/14 08:34:26;;;;;;;;;;;25.60;43.90;;;;;;5055535;28;19909;-70
2022/06/14 08:36:54;;;;;;;;;;;25.60;43.60;;;;;;5055341;28;19959;-69
2022/06/14 08:39:55;;;;;;;;;;;25.70;43.80;;;;;;5055435;28;19913;-71
2022/06/14 08:42:33;;;;;;;;;;;25.80;43.40;;;;;;5033540;28;19909;-69
2022/06/14 08:45:01;;;;;;;;;;;25.80;43.60;;;;;;5052668;28;19908;-69
2022/06/14 08:47:38;;;;;;;;;;;25.90;44.00;;;;;;5055426;28;19911;-70
2022/06/14 08:50:10;;;;;;;;;;;26.00;44.20;;;;;;5054844;28;19905;-69
2022/06/14 08:52:36;;;;;;;;;;;26.10;43.60;;;;;;5054930;28;19945;-69
2022/06/14 08:55:13;;;;;;;;;;;26.10;43.30;;;;;;5055238;28;19940;-69
2022/06/14 08:58:00;;;;;;;;;;;26.20;44.30;;;;;;5055211;28;19904;-70
2022/06/14 09:00:34;;;;;;;;;;;26.30;42.90;;;;;;5054689;28;19917;-69
2022/06/14 09:03:20;;;;;;;;;;;26.30;42.70;;;;;;5054903;28;19908;-69
2022/06/14 09:05:57;;;;;;;;;;;26.40;42.10;;;;;;5055037;28;19959;-69
2022/06/14 09:08:28;;;;;;;;;;;26.50;42.70;;;;;;5054814;28;20272;-70
2022/06/14 09:10:54;;;;;;;;;;;26.50;41.80;;;;;;5054933;28;20250;-69
2022/06/14 09:13:25;;;;;;;;;;;26.60;41.70;;;;;;5054835;28;19958;-70
2022/06/14 09:15:56;;;;;;;;;;;26.70;41.60;;;;;;5054684;28;19909;-70
2022/06/14 09:18:25;;;;;;;;;;;26.70;42.00;;;;;;5054179;28;19905;-70
2022/06/14 09:21:09;;;;;;;;;;;26.60;41.30;;;;;;5054106;28;19913;-70
2022/06/14 09:23:46;;;;;;;;;;;26.70;42.40;;;;;;5054477;28;19905;-70
2022/06/14 09:26:26;;;;;;;;;;;26.70;42.30;;;;;;5054832;28;20280;-71
2022/06/14 09:29:04;;;;;;;;;;;26.80;41.40;;;;;;5054214;28;20392;-70
2022/06/14 09:31:29;;;;;;;;;;;26.70;41.80;;;;;;5054395;28;19972;-69
2022/06/14 09:34:10;;;;;;;;;;;26.70;41.30;;;;;;5054324;28;19909;-70
2022/06/14 09:36:55;;;;;;;;;;;26.80;42.10;;;;;;5053973;28;19982;-70
2022/06/14 09:39:20;;;;;;;;;;;26.80;41.60;;;;;;5054105;28;19920;-70
2022/06/14 09:42:01;;;;;;;;;;;26.80;42.00;;;;;;5054069;28;20349;-70
2022/06/14 09:44:29;;;;;;;;;;;26.90;41.30;;;;;;5053985;28;19927;-70
2022/06/14 09:47:07;;;;;;;;;;;26.90;42.20;;;;;;5054562;28;19905;-70
2022/06/14 09:49:32;;;;;;;;;;;26.90;42.00;;;;;;5054077;28;19905;-70
2022/06/14 09:52:07;;;;;;;;;;;26.90;42.20;;;;;;5054083;28;19912;-70
2022/06/14 09:54:41;;;;;;;;;;;27.00;42.40;;;;;;5053872;28;19947;-69
2022/06/14 09:57:22;;;;;;;;;;;27.10;42.50;;;;;;5054152;28;19905;-69
2022/06/14 09:59:51;;;;;;;;;;;27.20;42.80;;;;;;5053707;28;19967;-69
2022/06/14 10:02:27;;;;;;;;;;;27.20;43.20;;;;;;5053126;28;20337;-69
2022/06/14 10:05:11;;;;;;;;;;;27.30;42.50;;;;;;5053600;28;20369;-70
2022/06/14 10:07:52;;;;;;;;;;;27.30;42.50;;;;;;5053653;28;20325;-71
2022/06/14 10:10:26;;;;;;;;;;;27.50;42.60;;;;;;5053737;28;19970;-69
2022/06/14 10:13:04;;;;;;;;;;;27.60;42.30;;;;;;5053682;28;20375;-70
2022/06/14 10:15:43;;;;;;;;;;;27.60;42.20;;;;;;5053690;28;20004;-70
2022/06/14 10:18:15;;;;;;;;;;;27.70;42.40;;;;;;5054050;28;19950;-70
2022/06/14 10:20:59;;;;;;;;;;;27.60;42.80;;;;;;5053669;28;20015;-70
2022/06/14 10:23:35;;;;;;;;;;;27.70;42.00;;;;;;5053470;28;19927;-70
2022/06/14 10:29:15;;;;;;;;;;;27.80;42.30;;;;;;5053366;28;20043;-69
2022/06/14 10:31:59;;;;;;;;;;;27.90;41.10;;;;;;5053481;28;19904;-68
2022/06/14 10:34:45;;;;;;;;;;;27.90;40.30;;;;;;5053270;28;19955;-68
2022/06/14 10:37:19;;;;;;;;;;;27.90;41.20;;;;;;5053488;28;20028;-68
2022/06/14 10:40:03;;;;;;;;;;;27.80;40.30;;;;;;5053139;28;19959;-68
2022/06/14 10:42:33;;;;;;;;;;;27.80;41.30;;;;;;5053636;28;19905;-69
2022/06/14 10:44:59;;;;;;;;;;;27.90;41.60;;;;;;5053750;28;19912;-68
2022/06/14 10:47:30;;;;;;;;;;;28.00;40.10;;;;;;5053365;28;19950;-69
2022/06/14 10:49:59;;;;;;;;;;;28.00;40.20;;;;;;5053298;28;19904;-69
2022/06/14 10:52:24;;;;;;;;;;;28.00;40.60;;;;;;5052990;28;20391;-69
2022/06/14 10:55:08;;;;;;;;;;;28.00;41.60;;;;;;5052832;28;19947;-68
2022/06/14 10:57:42;;;;;;;;;;;28.10;40.90;;;;;;5053050;28;19909;-69
2022/06/14 11:00:08;;;;;;;;;;;28.20;40.70;;;;;;5052886;28;19916;-69
2022/06/14 11:02:52;;;;;;;;;;;28.30;40.80;;;;;;5053184;28;19908;-69
2022/06/14 11:05:24;;;;;;;;;;;28.30;40.10;;;;;;5053321;28;20009;-68
2022/06/14 11:08:09;;;;;;;;;;;28.30;39.90;;;;;;5053085;28;19916;-69
2022/06/14 11:10:37;;;;;;;;;;;28.30;39.10;;;;;;5052925;28;19912;-68
2022/06/14 11:13:21;;;;;;;;;;;28.30;40.00;;;;;;5055138;28;20011;-68
2022/06/14 11:16:00;;;;;;;;;;;28.40;40.70;;;;;;5056876;28;20341;-71
2022/06/14 11:18:44;;;;;;;;;;;28.40;38.70;;;;;;5057148;28;20329;-68
2022/06/14 11:21:28;;;;;;;;;;;28.40;38.80;;;;;;5056737;28;20003;-68
2022/06/14 11:24:09;;;;;;;;;;;28.50;39.00;;;;;;5056479;28;20281;-68
2022/06/14 11:26:34;;;;;;;;;;;28.50;39.20;;;;;;5056726;28;20277;-71
2022/06/14 11:29:00;;;;;;;;;;;28.50;39.40;;;;;;5056948;28;19904;-68
2022/06/14 11:31:28;;;;;;;;;;;28.40;39.10;;;;;;5056632;28;19908;-68
2022/06/14 11:34:12;;;;;;;;;;;28.50;39.80;;;;;;5056698;28;19962;-68
2022/06/14 11:36:44;;;;;;;;;;;28.50;40.60;;;;;;5056546;28;19904;-68
2022/06/14 11:39:36;;;;;;;;;;;28.70;40.10;;;;;;5056236;28;19916;-67
2022/06/14 11:42:05;;;;;;;;;;;28.80;40.60;;;;;;5054884;28;20418;-68
2022/06/14 11:44:36;;;;;;;;;;;28.90;41.50;;;;;;5055939;28;19904;-68
2022/06/14 11:47:02;;;;;;;;;;;29.00;38.70;;;;;;5056289;28;19911;-68
2022/06/14 11:49:43;;;;;;;;;;;29.10;39.90;;;;;;5056141;28;19991;-69
2022/06/14 11:52:16;;;;;;;;;;;29.10;38.80;;;;;;5056181;28;19905;-69
2022/06/14 11:54:51;;;;;;;;;;;29.10;39.10;;;;;;5056256;28;19909;-69
2022/06/14 11:57:35;;;;;;;;;;;29.10;40.00;;;;;;5055893;28;19912;-68
2022/06/14 12:00:12;;;;;;;;;;;29.20;39.10;;;;;;5054046;28;19955;-69
2022/06/14 12:14:26;;;;;;;;;;;29.20;38.10;;;;;;5052958;28;19991;-67
2022/06/14 12:16:59;;;;;;;;;;;29.30;38.30;;;;;;5055687;28;19913;-68
2022/06/14 12:19:28;;;;;;;;;;;29.30;38.40;;;;;;5055462;28;19909;-68
2022/06/14 12:22:26;;;;;;;;;;;29.40;38.20;;;;;;5055204;28;19913;-69
2022/06/14 12:27:32;;;;;;;;;;;29.40;38.20;;;;;;5055750;28;19927;-68
2022/06/14 12:29:59;;;;;;;;;;;29.40;38.60;;;;;;5055351;28;19905;-69
2022/06/14 12:32:27;;;;;;;;;;;29.40;38.40;;;;;;5055444;28;19928;-68
2022/06/14 12:35:00;;;;;;;;;;;29.40;39.90;;;;;;5055463;28;20430;-71
2022/06/14 12:37:41;;;;;;;;;;;29.50;38.90;;;;;;5055194;28;19905;-68
2022/06/14 12:40:12;;;;;;;;;;;29.60;37.40;;;;;;5055190;28;19936;-67
2022/06/14 12:42:41;;;;;;;;;;;29.60;37.20;;;;;;5055230;28;20340;-68
2022/06/14 12:45:10;;;;;;;;;;;29.70;37.20;;;;;;5055264;28;19974;-67
2022/06/14 12:47:39;;;;;;;;;;;29.60;38.40;;;;;;5052589;28;19908;-68
2022/06/14 12:50:25;;;;;;;;;;;29.70;39.30;;;;;;5051026;28;20422;-68
2022/06/14 12:52:53;;;;;;;;;;;29.70;40.00;;;;;;5054470;28;19905;-70
2022/06/14 12:55:39;;;;;;;;;;;29.80;38.40;;;;;;5055055;28;20042;-69
2022/06/14 12:58:13;;;;;;;;;;;29.80;37.90;;;;;;5054421;28;19912;-70
2022/06/14 13:00:41;;;;;;;;;;;30.00;38.10;;;;;;5054997;28;19920;-70
2022/06/14 13:03:26;;;;;;;;;;;30.00;36.40;;;;;;5070163;28;20391;-70
2022/06/14 13:05:54;;;;;;;;;;;30.00;37.40;;;;;;5054713;28;19912;-70
2022/06/14 13:08:26;;;;;;;;;;;30.10;37.80;;;;;;5055146;28;20277;-70
2022/06/14 13:11:03;;;;;;;;;;;30.10;38.40;;;;;;5054765;28;19905;-70
2022/06/14 13:13:44;;;;;;;;;;;30.10;37.00;;;;;;5054464;28;20003;-70
2022/06/14 13:16:25;;;;;;;;;;;30.20;37.20;;;;;;5054838;28;19944;-71
2022/06/14 13:18:56;;;;;;;;;;;30.20;37.30;;;;;;5054746;28;19905;-72
2022/06/14 13:21:40;;;;;;;;;;;30.20;38.50;;;;;;5054746;28;19905;-72
2022/06/14 13:24:06;;;;;;;;;;;30.20;38.60;;;;;;5054383;28;19911;-71
2022/06/14 13:26:43;;;;;;;;;;;30.30;38.50;;;;;;5054543;28;19944;-71
2022/06/14 13:29:11;;;;;;;;;;;30.30;38.90;;;;;;5054901;28;19912;-74
2022/06/14 13:31:37;;;;;;;;;;;30.40;37.80;;;;;;5054469;28;20273;-75
2022/06/14 13:34:05;;;;;;;;;;;30.40;38.30;;;;;;5054341;28;19904;-71
2022/06/14 13:36:43;;;;;;;;;;;30.40;37.50;;;;;;5053213;28;20388;-71
2022/06/14 13:39:16;;;;;;;;;;;30.40;37.70;;;;;;5054053;28;19969;-72
2022/06/14 13:42:00;;;;;;;;;;;30.40;38.20;;;;;;5054292;28;20380;-72
2022/06/14 13:44:29;;;;;;;;;;;30.40;37.70;;;;;;5052594;28;19905;-72
2022/06/14 13:47:01;;;;;;;;;;;30.50;37.80;;;;;;5053904;28;19967;-70
2022/06/14 13:49:27;;;;;;;;;;;30.50;36.80;;;;;;5053990;28;19912;-69
2022/06/14 13:52:08;;;;;;;;;;;30.40;37.20;;;;;;5053699;28;19904;-75
2022/06/14 13:54:40;;;;;;;;;;;30.30;36.60;;;;;;5053817;28;19947;-69
2022/06/14 13:57:24;;;;;;;;;;;30.20;35.90;;;;;;5053504;28;19904;-70
2022/06/14 13:59:50;;;;;;;;;;;30.20;37.30;;;;;;5053154;28;19913;-76
2022/06/14 14:02:16;;;;;;;;;;;30.30;36.70;;;;;;5053582;28;19904;-72
2022/06/14 14:04:47;;;;;;;;;;;30.20;36.20;;;;;;5053181;28;19912;-71
2022/06/14 14:07:31;;;;;;;;;;;30.10;35.90;;;;;;5053702;28;19905;-78
2022/06/14 14:09:56;;;;;;;;;;;30.10;38.10;;;;;;5053748;28;20379;-69
2022/06/14 14:12:29;;;;;;;;;;;30.00;37.40;;;;;;5053535;28;19917;-71
2022/06/14 14:14:55;;;;;;;;;;;30.10;37.40;;;;;;5053565;28;20318;-69
2022/06/14 14:17:32;;;;;;;;;;;30.00;37.70;;;;;;5053655;28;19909;-69
2022/06/14 14:20:04;;;;;;;;;;;30.10;37.90;;;;;;5053614;28;19913;-69
2022/06/14 14:22:34;;;;;;;;;;;30.10;37.30;;;;;;5053245;28;20407;-68
2022/06/14 14:25:03;;;;;;;;;;;30.20;37.70;;;;;;5053292;28;19905;-68
2022/06/14 14:27:35;;;;;;;;;;;30.10;39.30;;;;;;5053352;28;19905;-74
2022/06/14 14:30:06;;;;;;;;;;;30.20;38.00;;;;;;5053404;28;19999;-68
2022/06/14 14:32:39;;;;;;;;;;;30.20;37.90;;;;;;5053287;28;19999;-68
2022/06/14 14:35:08;;;;;;;;;;;30.30;38.10;;;;;;5053027;28;19905;-67
2022/06/14 14:37:41;;;;;;;;;;;30.30;37.70;;;;;;5053401;28;19905;-68
2022/06/14 14:40:07;;;;;;;;;;;30.30;38.10;;;;;;5053374;28;20003;-67
2022/06/14 14:42:45;;;;;;;;;;;30.30;38.70;;;;;;5053294;28;20014;-67
2022/06/14 14:45:11;;;;;;;;;;;30.30;38.30;;;;;;5053093;28;19905;-67
2022/06/14 14:47:40;;;;;;;;;;;30.40;37.80;;;;;;5054747;28;19911;-67
2022/06/14 14:50:17;;;;;;;;;;;30.40;38.00;;;;;;5057185;28;19912;-67
2022/06/14 14:52:51;;;;;;;;;;;30.40;38.40;;;;;;5057313;28;20372;-68
2022/06/14 14:55:21;;;;;;;;;;;30.40;38.30;;;;;;5057298;28;19927;-68
2022/06/14 14:57:53;;;;;;;;;;;30.50;39.30;;;;;;5057121;28;19905;-68
2022/06/14 15:00:21;;;;;;;;;;;30.50;39.30;;;;;;5056914;28;19959;-67
2022/06/14 15:05:49;;;;;;;;;;;30.50;38.10;;;;;;5054464;28;20383;-67
2022/06/14 15:08:26;;;;;;;;;;;30.50;38.10;;;;;;5056029;28;19924;-66
2022/06/14 15:10:55;;;;;;;;;;;30.50;38.50;;;;;;5056516;28;19991;-67
2022/06/14 15:13:39;;;;;;;;;;;30.50;38.10;;;;;;5056534;28;19920;-67
2022/06/14 15:16:14;;;;;;;;;;;30.50;36.40;;;;;;5056309;28;19909;-67
2022/06/14 15:21:32;;;;;;;;;;;30.40;36.50;;;;;;5056864;28;19920;-67
2022/06/14 15:24:00;;;;;;;;;;;30.40;36.80;;;;;;5056625;28;20273;-67
2022/06/14 15:26:26;;;;;;;;;;;30.40;37.80;;;;;;5056578;28;19905;-67
2022/06/14 15:28:57;;;;;;;;;;;30.40;38.00;;;;;;5056889;28;19991;-68
2022/06/14 15:31:26;;;;;;;;;;;30.40;37.30;;;;;;5056264;28;19968;-68
2022/06/14 15:33:52;;;;;;;;;;;30.40;37.40;;;;;;5056149;28;19909;-68
2022/06/14 15:36:28;;;;;;;;;;;30.40;37.50;;;;;;5056092;28;20273;-67
2022/06/14 15:38:56;;;;;;;;;;;30.40;37.10;;;;;;5056242;28;19908;-66
2022/06/14 15:41:21;;;;;;;;;;;30.30;37.30;;;;;;5056213;28;20451;-68
2022/06/14 15:44:05;;;;;;;;;;;30.30;38.00;;;;;;5055542;28;19912;-68
2022/06/14 15:46:34;;;;;;;;;;;30.20;37.10;;;;;;5054848;28;19909;-69
2022/06/14 15:49:10;;;;;;;;;;;30.20;36.10;;;;;;5054848;28;19912;-68
2022/06/14 15:51:36;;;;;;;;;;;30.10;38.50;;;;;;5052408;28;19986;-69
2022/06/14 15:54:03;;;;;;;;;;;30.10;37.60;;;;;;5054847;28;19905;-69
2022/06/14 15:56:32;;;;;;;;;;;30.00;37.20;;;;;;5054599;28;19904;-68
2022/06/14 15:59:00;;;;;;;;;;;30.00;37.20;;;;;;5051010;28;20296;-69
2022/06/14 16:01:29;;;;;;;;;;;30.00;37.10;;;;;;5054501;28;19915;-68
2022/06/14 16:04:00;;;;;;;;;;;30.00;37.10;;;;;;5051710;28;19995;-71
2022/06/14 16:06:28;;;;;;;;;;;30.00;37.90;;;;;;5054555;28;19905;-68
2022/06/14 16:08:56;;;;;;;;;;;30.10;39.30;;;;;;5054403;28;19909;-69
2022/06/14 16:11:22;;;;;;;;;;;30.10;38.80;;;;;;5054185;28;19905;-69
2022/06/14 16:13:55;;;;;;;;;;;30.10;39.40;;;;;;5054053;28;20365;-69
2022/06/14 16:16:27;;;;;;;;;;;30.10;38.90;;;;;;5053489;28;19908;-70
2022/06/14 16:18:53;;;;;;;;;;;30.10;39.50;;;;;;5051324;28;19905;-69
2022/06/14 16:21:23;;;;;;;;;;;30.10;38.70;;;;;;5050947;28;19970;-69
2022/06/14 16:23:49;;;;;;;;;;;30.10;39.20;;;;;;5054140;28;19905;-69
2022/06/14 16:26:18;;;;;;;;;;;30.10;39.50;;;;;;5055603;28;19944;-69
2022/06/14 16:28:46;;;;;;;;;;;30.00;39.50;;;;;;5055287;28;19959;-82
2022/06/14 16:31:47;;;;;;;;;;;30.00;40.00;;;;;;5054967;28;20419;-69
2022/06/14 16:34:16;;;;;;;;;;;30.00;39.70;;;;;;5013509;28;20285;-70
2022/06/14 16:36:51;;;;;;;;;;;29.90;39.50;;;;;;5047406;28;19908;-70
2022/06/14 16:39:30;;;;;;;;;;;29.90;39.80;;;;;;5055126;28;19912;-70
2022/06/14 16:42:03;;;;;;;;;;;29.80;39.40;;;;;;5055171;28;19927;-69
2022/06/14 16:44:33;;;;;;;;;;;29.80;39.60;;;;;;5055319;28;20419;-68
2022/06/14 16:46:58;;;;;;;;;;;29.80;39.80;;;;;;5054962;28;19940;-68
2022/06/14 16:49:39;;;;;;;;;;;29.70;39.20;;;;;;5055177;28;19944;-69
2022/06/14 16:52:13;;;;;;;;;;;29.70;39.10;;;;;;5054502;28;19905;-69
2022/06/14 16:54:43;;;;;;;;;;;29.70;39.90;;;;;;5054422;28;19904;-69
2022/06/14 16:57:26;;;;;;;;;;;29.60;39.70;;;;;;5054539;28;20273;-68
2022/06/14 16:59:51;;;;;;;;;;;29.60;39.60;;;;;;5054789;28;19919;-68
2022/06/14 17:02:17;;;;;;;;;;;29.60;40.00;;;;;;5054619;28;20364;-68
2022/06/14 17:04:53;;;;;;;;;;;29.60;39.80;;;;;;5054832;28;19904;-69
2022/06/14 17:07:25;;;;;;;;;;;29.60;40.20;;;;;;5054638;28;19926;-68
2022/06/14 17:09:51;;;;;;;;;;;29.50;39.70;;;;;;5053974;28;19951;-68
2022/06/14 17:12:26;;;;;;;;;;;29.50;41.00;;;;;;5054545;28;19917;-67
2022/06/14 17:15:02;;;;;;;;;;;29.50;41.90;;;;;;5051894;28;19909;-68
2022/06/14 17:17:30;;;;;;;;;;;29.50;41.20;;;;;;5051422;28;20319;-73
2022/06/14 17:20:00;;;;;;;;;;;29.40;41.30;;;;;;5053729;28;19912;-73
2022/06/14 17:22:37;;;;;;;;;;;29.30;42.00;;;;;;5054609;28;20353;-68
2022/06/14 17:30:57;;;;;;;;;;;29.10;42.20;;;;;;5054636;28;19958;-68
2022/06/14 17:33:31;;;;;;;;;;;28.90;42.50;;;;;;5054193;28;20238;-68
2022/06/14 17:35:59;;;;;;;;;;;28.80;43.00;;;;;;5051520;28;19931;-67
2022/06/14 17:38:28;;;;;;;;;;;28.80;43.60;;;;;;5051196;28;19908;-69
2022/06/14 17:41:01;;;;;;;;;;;28.80;43.80;;;;;;5051751;28;19912;-69
2022/06/14 17:43:34;;;;;;;;;;;28.70;44.00;;;;;;5053908;28;19905;-68
2022/06/14 17:46:08;;;;;;;;;;;28.50;44.20;;;;;;5052636;28;19973;-69
2022/06/14 17:48:40;;;;;;;;;;;28.40;44.60;;;;;;5054073;28;19908;-82
2022/06/14 17:51:24;;;;;;;;;;;28.40;44.80;;;;;;5053674;28;19909;-69
2022/06/14 17:53:55;;;;;;;;;;;28.30;44.90;;;;;;5053750;28;19905;-74
2022/06/14 17:56:27;;;;;;;;;;;28.30;47.80;;;;;;5053709;28;19994;-71
2022/06/14 17:58:55;;;;;;;;;;;28.10;48.80;;;;;;5053300;28;19916;-74
2022/06/14 18:01:25;;;;;;;;;;;28.10;49.80;;;;;;5053842;28;20323;-68
2022/06/14 18:04:02;;;;;;;;;;;28.10;50.20;;;;;;5053862;28;19991;-67
2022/06/14 18:06:44;;;;;;;;;;;28.00;51.10;;;;;;5053262;28;19909;-71
2022/06/14 18:09:09;;;;;;;;;;;27.90;50.50;;;;;;5053606;28;19905;-66
2022/06/14 18:11:35;;;;;;;;;;;27.90;50.40;;;;;;5053496;28;19904;-67
2022/06/14 18:14:01;;;;;;;;;;;27.80;51.10;;;;;;5053247;28;20455;-68
2022/06/14 18:16:33;;;;;;;;;;;27.70;51.70;;;;;;5053421;28;19930;-68
2022/06/14 18:20:49;;;;;;;;;;;27.70;51.70;;;;;;5053432;28;20368;-70
2022/06/14 18:21:46;;;;;;;;;;;27.60;52.10;;;;;;5052616;28;19912;-67
2022/06/14 18:24:14;;;;;;;;;;;27.50;54.40;;;;;;5053379;28;19905;-67
2022/06/14 18:26:43;;;;;;;;;;;27.40;54.40;;;;;;5053329;28;20353;-67
2022/06/14 18:29:27;;;;;;;;;;;27.40;53.50;;;;;;5052870;28;19948;-66
2022/06/14 18:31:55;;;;;;;;;;;27.40;52.30;;;;;;5053132;28;20383;-65
2022/06/14 18:34:27;;;;;;;;;;;27.30;53.00;;;;;;5052001;28;19904;-67
2022/06/14 18:36:57;;;;;;;;;;;27.20;53.60;;;;;;5051214;28;19905;-67
2022/06/14 18:39:26;;;;;;;;;;;27.10;51.70;;;;;;5051988;28;19909;-66
2022/06/14 18:41:52;;;;;;;;;;;27.10;51.80;;;;;;5052618;28;19950;-74
2022/06/14 18:44:20;;;;;;;;;;;27.00;52.50;;;;;;5053131;28;19911;-67
2022/06/14 18:46:52;;;;;;;;;;;27.00;51.60;;;;;;5052911;28;19912;-67
2022/06/14 18:49:36;;;;;;;;;;;26.90;50.80;;;;;;5052769;28;19905;-67
2022/06/14 18:52:17;;;;;;;;;;;26.90;50.50;;;;;;5053020;28;19912;-66
2022/06/14 18:54:46;;;;;;;;;;;26.80;51.60;;;;;;5053197;28;19904;-67
2022/06/14 18:57:12;;;;;;;;;;;26.70;55.40;;;;;;5052739;28;19912;-74
2022/06/14 18:59:40;;;;;;;;;;;26.70;53.00;;;;;;5052967;28;19913;-75
2022/06/14 19:02:24;;;;;;;;;;;26.60;54.20;;;;;;5085223;28;20305;-67
2022/06/14 19:04:50;;;;;;;;;;;26.60;54.60;;;;;;5052531;28;19904;-66
2022/06/14 19:07:29;;;;;;;;;;;26.40;50.70;;;;;;5052833;28;19959;-67
2022/06/14 19:09:55;;;;;;;;;;;26.40;49.70;;;;;;5052628;28;20357;-67
2022/06/14 19:12:39;;;;;;;;;;;26.30;48.50;;;;;;5052500;28;19912;-67
2022/06/14 19:15:20;;;;;;;;;;;26.40;51.00;;;;;;5052842;28;19904;-67
2022/06/14 19:17:46;;;;;;;;;;;26.30;51.90;;;;;;5052901;28;20395;-67
2022/06/14 19:20:17;;;;;;;;;;;26.30;52.40;;;;;;5052585;28;19913;-67
2022/06/14 19:22:55;;;;;;;;;;;26.20;52.20;;;;;;5052516;28;19905;-67
2022/06/14 19:25:35;;;;;;;;;;;26.10;55.20;;;;;;5052597;28;19958;-73
2022/06/14 19:28:30;;;;;;;;;;;26.00;55.30;;;;;;5052605;28;19905;-74
2022/06/14 19:30:58;;;;;;;;;;;25.90;54.20;;;;;;5015837;28;19920;-65
2022/06/14 19:33:29;;;;;;;;;;;25.80;52.80;;;;;;5053852;28;19935;-67
2022/06/14 19:35:56;;;;;;;;;;;25.80;55.10;;;;;;5056334;28;19911;-67
2022/06/14 19:38:40;;;;;;;;;;;25.70;53.40;;;;;;5056620;28;20375;-66
2022/06/14 19:41:17;;;;;;;;;;;25.70;54.00;;;;;;5056149;28;19974;-66
2022/06/14 19:43:46;;;;;;;;;;;25.70;54.30;;;;;;5055998;28;19908;-66
2022/06/14 19:46:27;;;;;;;;;;;25.60;54.10;;;;;;5056210;28;19909;-72
2022/06/14 19:51:40;;;;;;;;;;;25.50;54.40;;;;;;5056457;28;20054;-66
2022/06/14 19:54:10;;;;;;;;;;;25.40;54.70;;;;;;5056158;28;19974;-66